Time;durP1;ratioP1;P1;durP2;ratioP2;P2;SDS_P1;SDS_P2;PMS_P1;PMS_P2;Temp;Humidity;BMP_temperature;BMP_pressure;BME280_temperature;BME280_humidity;BME280_pressure;Samples;Min_cycle;Max_cycle;Signal;HPM_P1;HPM_P2
2022/08/13 00:00:17;;;;;;;2.33;1.00;;;;;;;20.73;38.82;98531.88;4970212;28;20277;-51
2022/08/13 00:02:45;;;;;;;4.40;1.00;;;;;;;20.73;39.09;98528.41;4970327;28;20301;-52
2022/08/13 00:05:12;;;;;;;4.03;1.30;;;;;;;20.70;39.07;98527.03;4969116;28;20327;-53
2022/08/13 00:07:39;;;;;;;2.23;1.10;;;;;;;20.69;39.35;98520.09;4969676;28;20581;-51
2022/08/13 00:10:09;;;;;;;1.53;1.20;;;;;;;20.56;39.38;98522.88;4969685;28;20250;-53
2022/08/13 00:15:26;;;;;;;2.83;1.20;;;;;;;20.55;39.67;98511.47;4969437;28;20716;-50
2022/08/13 00:17:54;;;;;;;1.73;1.20;;;;;;;20.59;39.83;98519.78;4970692;28;20273;-50
2022/08/13 00:20:24;;;;;;;2.03;1.07;;;;;;;20.50;40.11;98522.72;4969085;28;20244;-51
2022/08/13 00:22:50;;;;;;;5.23;1.20;;;;;;;20.43;40.02;98514.00;4970031;28;20244;-51
2022/08/13 00:25:20;;;;;;;3.03;1.03;;;;;;;20.33;40.39;98513.69;4968667;28;20776;-52
2022/08/13 00:27:48;;;;;;;4.57;1.47;;;;;;;20.25;41.03;98514.78;4970467;28;20244;-50
2022/08/13 00:30:16;;;;;;;2.20;0.90;;;;;;;20.16;41.04;98516.88;4973014;28;20229;-50
2022/08/13 00:32:45;;;;;;;1.63;1.03;;;;;;;20.19;41.03;98513.00;4959592;28;20268;-50
2022/08/13 00:35:14;;;;;;;3.17;1.20;;;;;;;20.21;41.29;98511.75;4971944;28;20301;-50
2022/08/13 00:37:42;;;;;;;2.07;1.00;;;;;;;20.10;41.52;98520.41;4974311;28;20230;-50
2022/08/13 00:40:10;;;;;;;1.93;1.23;;;;;;;20.02;41.51;98518.84;4974284;28;20763;-53
2022/08/13 00:42:39;;;;;;;2.47;1.30;;;;;;;19.83;42.46;98517.91;4973711;28;20718;-50
2022/08/13 00:45:08;;;;;;;1.20;1.10;;;;;;;19.68;42.78;98509.47;4974358;28;20300;-50
2022/08/13 00:50:35;;;;;;;1.57;1.10;;;;;;;19.64;42.57;98506.41;4894938;29;20235;-51
2022/08/13 00:53:02;;;;;;;3.40;1.10;;;;;;;19.69;41.81;98503.13;4894965;29;20632;-50
2022/08/13 00:55:49;;;;;;;1.60;1.10;;;;;;;19.62;42.41;98506.63;4939465;28;20238;-49
2022/08/13 00:58:19;;;;;;;3.00;1.40;;;;;;;19.51;43.10;98502.00;4973433;28;20240;-50
2022/08/13 01:00:48;;;;;;;1.17;1.00;;;;;;;19.44;43.20;98498.59;4973186;28;20980;-50
2022/08/13 01:03:16;;;;;;;1.23;1.13;;;;;;;19.35;43.58;98502.50;4972907;28;20688;-52
2022/08/13 01:05:44;;;;;;;1.43;1.00;;;;;;;19.44;43.06;98512.66;4973854;28;20381;-52
2022/08/13 01:08:12;;;;;;;1.53;1.20;;;;;;;19.44;42.65;98507.34;4972997;28;20232;-49
2022/08/13 01:10:39;;;;;;;1.30;0.90;;;;;;;19.42;43.34;98508.56;4973375;28;20267;-51
2022/08/13 01:13:09;;;;;;;1.33;1.00;;;;;;;19.36;43.77;98510.25;4973542;28;20230;-50
2022/08/13 01:15:39;;;;;;;3.30;1.13;;;;;;;19.32;43.58;98509.03;4973026;28;20240;-53
2022/08/13 01:18:07;;;;;;;2.83;1.20;;;;;;;19.24;43.16;98502.13;4973975;28;20313;-51
2022/08/13 01:20:43;;;;;;;1.77;1.00;;;;;;;19.23;43.69;98503.16;4971327;28;20278;-50
2022/08/13 01:23:13;;;;;;;2.00;1.30;;;;;;;19.25;44.02;98497.66;4972504;28;20827;-51
2022/08/13 01:25:40;;;;;;;1.47;1.20;;;;;;;19.24;43.90;98503.97;4973255;28;20243;-50
2022/08/13 01:28:08;;;;;;;1.30;1.10;;;;;;;19.19;44.33;98496.66;4973608;28;20239;-50
2022/08/13 01:30:35;;;;;;;2.50;1.10;;;;;;;19.06;44.94;98489.59;4972208;28;20268;-50
2022/08/13 01:33:02;;;;;;;1.30;1.20;;;;;;;19.22;43.69;98500.75;4973203;28;20334;-49
2022/08/13 01:35:30;;;;;;;1.30;1.00;;;;;;;19.08;44.30;98497.34;4972765;28;20251;-50
2022/08/13 01:38:18;;;;;;;2.23;1.10;;;;;;;19.07;44.56;98501.81;4973210;28;20705;-50
2022/08/13 01:40:48;;;;;;;1.57;1.13;;;;;;;18.98;44.41;98505.69;4972056;28;20633;-50
2022/08/13 01:43:15;;;;;;;0.90;0.90;;;;;;;18.86;44.75;98505.50;4972521;28;20619;-50
2022/08/13 01:45:44;;;;;;;1.77;1.20;;;;;;;18.76;44.96;98511.22;4973423;28;20272;-51
2022/08/13 01:50:55;;;;;;;1.10;1.00;;;;;;;18.49;45.93;98513.09;4972760;28;20711;-51
2022/08/13 01:53:23;;;;;;;1.60;1.27;;;;;;;18.41;46.05;98511.50;4972005;28;20323;-50
2022/08/13 01:55:54;;;;;;;1.77;1.10;;;;;;;18.39;46.39;98519.59;4973301;28;20287;-49
2022/08/13 01:58:24;;;;;;;2.43;1.00;;;;;;;18.24;46.66;98513.72;4971829;28;20283;-50
2022/08/13 02:00:54;;;;;;;1.77;0.87;;;;;;;18.10;46.91;98516.34;4973089;28;20415;-50
2022/08/13 02:03:22;;;;;;;1.00;0.97;;;;;;;18.08;47.30;98517.59;4970598;28;20772;-51
2022/08/13 02:05:50;;;;;;;1.33;1.20;;;;;;;17.97;47.53;98516.34;4973254;28;20605;-51
2022/08/13 02:08:22;;;;;;;1.30;1.20;;;;;;;17.92;47.81;98516.13;4972511;28;20314;-50
2022/08/13 02:11:10;;;;;;;4.40;1.20;;;;;;;17.80;47.79;98524.63;4972693;28;20719;-52
2022/08/13 02:13:39;;;;;;;2.27;1.40;;;;;;;17.70;48.15;98517.09;4972490;28;20234;-52
2022/08/13 02:16:06;;;;;;;1.50;0.90;;;;;;;17.68;48.22;98516.47;4972933;28;20317;-53
2022/08/13 02:18:33;;;;;;;1.33;1.23;;;;;;;17.55;48.14;98529.63;4970874;28;20249;-52
2022/08/13 02:21:02;;;;;;;1.90;1.30;;;;;;;17.46;48.39;98531.66;4972887;28;20717;-52
2022/08/13 02:23:32;;;;;;;1.87;1.20;;;;;;;17.51;48.68;98526.59;4970689;28;20326;-52
2022/08/13 02:26:05;;;;;;;2.50;1.20;;;;;;;17.50;48.67;98529.41;4972295;28;20234;-55
2022/08/13 02:28:37;;;;;;;3.23;1.20;;;;;;;17.50;48.75;98530.25;4971009;28;20233;-52
2022/08/13 02:31:04;;;;;;;1.40;1.30;;;;;;;17.44;49.23;98530.22;4971858;28;20325;-53
2022/08/13 02:33:33;;;;;;;1.20;1.07;;;;;;;17.31;49.23;98530.97;4970789;28;20235;-52
2022/08/13 02:36:00;;;;;;;2.40;1.23;;;;;;;17.26;49.50;98536.84;4972463;28;20234;-52
2022/08/13 02:38:27;;;;;;;2.30;1.10;;;;;;;17.21;49.66;98536.63;4971395;28;20241;-51
2022/08/13 02:43:42;;;;;;;1.60;1.17;;;;;;;17.13;50.07;98542.06;4970872;28;20660;-53
2022/08/13 02:46:27;;;;;;;3.13;1.30;;;;;;;17.15;50.02;98547.97;4971906;28;20606;-51
2022/08/13 02:48:56;;;;;;;5.13;1.27;;;;;;;17.09;49.80;98547.72;4972361;28;20292;-52
2022/08/13 02:51:23;;;;;;;2.30;1.40;;;;;;;17.10;50.17;98546.72;4970832;28;20234;-50
2022/08/13 02:53:50;;;;;;;1.13;1.03;;;;;;;16.99;50.80;98543.81;4976004;28;20697;-51
2022/08/13 02:56:16;;;;;;;1.23;1.00;;;;;;;16.95;50.61;98546.81;4972957;28;20236;-53
2022/08/13 02:58:45;;;;;;;1.20;1.10;;;;;;;16.83;50.64;98543.91;4974190;28;20241;-53
2022/08/13 03:01:14;;;;;;;1.57;1.20;;;;;;;16.81;50.92;98542.47;4976088;28;20238;-50
2022/08/13 03:03:41;;;;;;;2.67;1.30;;;;;;;16.76;51.57;98537.75;4977624;28;20729;-50
2022/08/13 03:06:09;;;;;;;1.57;1.20;;;;;;;16.61;51.52;98537.06;4978931;28;20287;-50
2022/08/13 03:08:36;;;;;;;3.00;1.20;;;;;;;16.48;51.89;98543.06;4972453;28;20242;-50
2022/08/13 03:11:03;;;;;;;2.17;1.20;;;;;;;16.48;52.29;98535.16;4976472;28;20239;-50
2022/08/13 03:13:33;;;;;;;2.43;1.50;;;;;;;16.45;52.61;98536.34;4974470;28;20225;-50
2022/08/13 03:16:02;;;;;;;1.20;1.10;;;;;;;16.36;52.49;98540.13;4977233;28;20225;-50
2022/08/13 03:18:30;;;;;;;1.00;0.93;;;;;;;16.34;53.00;98535.03;4976359;28;20232;-51
2022/08/13 03:20:58;;;;;;;1.27;1.10;;;;;;;16.35;52.91;98539.31;4974415;28;20231;-51
2022/08/13 03:23:24;;;;;;;1.40;1.20;;;;;;;16.35;53.19;98531.41;4975849;28;20229;-50
2022/08/13 03:25:51;;;;;;;1.10;1.00;;;;;;;16.29;52.96;98534.81;4974047;28;20221;-54
2022/08/13 03:28:18;;;;;;;3.37;1.43;;;;;;;16.21;53.08;98537.56;4977847;28;20229;-51
2022/08/13 03:30:46;;;;;;;2.07;1.30;;;;;;;16.23;53.96;98535.56;4977416;28;20315;-54
2022/08/13 03:33:15;;;;;;;3.03;1.23;;;;;;;16.20;53.90;98538.56;4974776;28;20249;-52
2022/08/13 03:35:41;;;;;;;3.50;1.20;;;;;;;16.21;53.67;98530.50;4975908;28;20242;-51
2022/08/13 03:38:11;;;;;;;2.33;1.20;;;;;;;16.12;53.93;98531.63;4981705;28;20302;-51
2022/08/13 03:43:23;;;;;;;2.07;1.10;;;;;;;16.12;54.29;98528.16;4977935;28;20262;-54
2022/08/13 03:45:51;;;;;;;1.80;1.20;;;;;;;16.11;54.64;98527.38;4978114;28;20591;-52
2022/08/13 03:48:19;;;;;;;1.50;1.40;;;;;;;16.09;54.97;98524.09;4974875;28;20232;-53
2022/08/13 03:50:48;;;;;;;1.90;1.30;;;;;;;16.03;54.73;98525.66;4975615;28;20231;-52
2022/08/13 03:53:17;;;;;;;2.03;1.60;;;;;;;16.02;55.21;98528.50;4974996;28;20262;-52
2022/08/13 03:55:44;;;;;;;1.40;1.30;;;;;;;15.99;55.39;98531.50;4977503;28;20238;-54
2022/08/13 03:58:14;;;;;;;1.77;1.30;;;;;;;16.02;55.80;98528.50;4974876;28;20236;-51
2022/08/13 04:00:47;;;;;;;2.20;1.43;;;;;;;16.04;55.63;98531.75;4972435;28;20230;-51
2022/08/13 04:03:19;;;;;;;1.97;1.60;;;;;;;15.99;55.51;98529.66;4973637;28;20238;-51
2022/08/13 04:05:48;;;;;;;1.53;1.43;;;;;;;15.94;56.08;98532.06;4975276;28;20772;-51
2022/08/13 04:08:15;;;;;;;2.90;1.37;;;;;;;15.92;56.19;98534.88;4973666;28;20222;-54
2022/08/13 04:10:43;;;;;;;1.30;1.20;;;;;;;15.92;56.60;98532.25;4977238;28;20576;-54
2022/08/13 04:13:15;;;;;;;2.73;1.57;;;;;;;15.87;56.51;98536.47;4978688;28;20223;-51
2022/08/13 04:15:42;;;;;;;1.63;1.40;;;;;;;15.83;57.24;98541.25;4975860;28;20676;-51
2022/08/13 04:18:11;;;;;;;2.50;1.77;;;;;;;15.84;57.16;98542.88;4977253;28;20697;-51
2022/08/13 04:20:40;;;;;;;2.93;1.40;;;;;;;15.75;57.31;98533.47;4973916;28;20245;-52
2022/08/13 04:23:14;;;;;;;3.27;1.37;;;;;;;15.75;57.44;98544.81;4973926;28;20226;-52
2022/08/13 04:25:42;;;;;;;2.17;1.50;;;;;;;15.69;57.68;98548.19;4977079;28;20234;-54
2022/08/13 04:28:11;;;;;;;2.27;1.50;;;;;;;15.73;57.94;98548.63;4976082;28;20290;-51
2022/08/13 04:30:41;;;;;;;2.20;1.60;;;;;;;15.75;58.28;98539.56;4974878;28;20704;-51
2022/08/13 04:33:11;;;;;;;2.93;1.60;;;;;;;15.85;58.40;98541.88;4973742;28;20239;-52
2022/08/13 04:35:39;;;;;;;2.00;1.80;;;;;;;15.83;58.04;98543.06;4975316;28;20248;-51
2022/08/13 04:38:07;;;;;;;3.43;1.57;;;;;;;15.78;58.15;98547.06;4976720;28;20706;-54
2022/08/13 04:40:36;;;;;;;3.80;1.33;;;;;;;15.74;58.63;98545.00;4971201;28;20292;-51
2022/08/13 04:43:04;;;;;;;3.80;1.50;;;;;;;15.76;58.70;98538.56;4971735;28;20233;-53
2022/08/13 04:45:31;;;;;;;8.27;1.50;;;;;;;15.72;58.23;98539.94;4972785;28;20232;-54
2022/08/13 04:48:03;;;;;;;1.93;1.33;;;;;;;15.79;58.69;98546.06;4972573;28;20252;-51
2022/08/13 04:50:34;;;;;;;1.93;1.40;;;;;;;15.86;58.91;98548.75;4972451;28;20226;-51
2022/08/13 04:53:02;;;;;;;3.67;1.70;;;;;;;15.88;58.65;98552.06;4972802;28;20232;-51
2022/08/13 04:55:31;;;;;;;1.73;1.37;;;;;;;15.84;58.19;98547.34;4972307;28;20229;-52
2022/08/13 04:57:58;;;;;;;4.70;1.80;;;;;;;15.88;58.97;98540.72;4972259;28;20225;-52
2022/08/13 05:00:29;;;;;;;3.10;1.60;;;;;;;15.87;58.69;98547.78;4973013;28;20286;-51
2022/08/13 05:02:56;;;;;;;3.97;1.73;;;;;;;15.90;58.97;98544.78;4973110;28;20236;-52
2022/08/13 05:05:24;;;;;;;1.90;1.70;;;;;;;15.93;58.90;98541.78;4977075;28;20589;-51
2022/08/13 05:07:52;;;;;;;4.67;1.63;;;;;;;15.95;59.17;98538.94;4979263;28;20247;-51
2022/08/13 05:10:20;;;;;;;2.87;1.50;;;;;;;15.92;59.42;98532.25;4977542;28;20267;-50
2022/08/13 05:12:48;;;;;;;4.10;1.80;;;;;;;15.98;59.48;98532.50;4971966;28;20243;-51
2022/08/13 05:15:15;;;;;;;2.30;1.33;;;;;;;16.01;58.91;98537.41;4979955;28;20737;-52
2022/08/13 05:17:43;;;;;;;1.60;1.50;;;;;;;16.00;59.06;98539.19;4980044;28;20243;-52
2022/08/13 05:20:14;;;;;;;2.03;1.40;;;;;;;16.05;59.28;98539.44;4976391;28;20227;-52
2022/08/13 05:22:40;;;;;;;4.77;2.03;;;;;;;16.02;59.52;98546.91;4976406;28;20311;-52
2022/08/13 05:25:08;;;;;;;2.47;1.80;;;;;;;16.04;59.77;98545.72;4979410;28;20222;-53
2022/08/13 05:27:34;;;;;;;2.43;1.80;;;;;;;16.01;59.96;98547.94;4978632;28;20250;-53
2022/08/13 05:30:04;;;;;;;1.90;1.50;;;;;;;16.02;60.57;98546.91;4979026;28;20220;-53
2022/08/13 05:32:30;;;;;;;2.13;1.73;;;;;;;16.04;60.83;98545.72;4975837;28;20232;-51
2022/08/13 05:34:59;;;;;;;4.47;1.87;;;;;;;16.01;60.38;98543.47;4981623;28;20610;-52
2022/08/13 05:37:26;;;;;;;1.87;1.43;;;;;;;16.02;60.71;98549.56;4983065;28;20237;-51
2022/08/13 05:39:52;;;;;;;3.07;1.70;;;;;;;16.07;60.35;98550.59;4978943;28;20232;-52
2022/08/13 05:42:19;;;;;;;2.20;1.60;;;;;;;16.12;60.50;98550.06;4980041;28;20249;-54
2022/08/13 05:44:47;;;;;;;4.00;1.73;;;;;;;16.16;59.92;98548.69;4980699;28;20329;-51
2022/08/13 05:47:17;;;;;;;5.17;1.80;;;;;;;16.19;60.32;98550.09;4957375;28;20752;-55
2022/08/13 05:49:43;;;;;;;1.90;1.70;;;;;;;16.21;60.36;98561.25;4977616;28;20247;-53
2022/08/13 05:52:11;;;;;;;3.13;1.60;;;;;;;16.32;59.65;98554.69;4976349;28;20232;-52
2022/08/13 05:54:39;;;;;;;2.40;1.53;;;;;;;16.38;58.91;98560.00;4976680;28;20296;-51
2022/08/13 05:57:06;;;;;;;5.30;1.57;;;;;;;16.43;58.83;98556.78;4977192;28;20825;-54
2022/08/13 06:05:02;;;;;;;3.43;2.13;;;;;;;16.57;59.20;98565.63;4980013;28;20251;-51
2022/08/13 06:07:30;;;;;;;2.57;1.70;;;;;;;16.61;58.51;98556.31;4979612;28;20319;-53
2022/08/13 06:09:57;;;;;;;13.87;2.00;;;;;;;16.72;58.61;98556.81;4980223;28;20216;-51
2022/08/13 06:12:25;;;;;;;6.13;1.63;;;;;;;16.75;57.79;98559.84;4980585;28;20350;-51
2022/08/13 06:14:56;;;;;;;7.80;1.90;;;;;;;16.80;57.75;98557.47;4977150;28;20630;-52
2022/08/13 06:17:24;;;;;;;3.33;1.43;;;;;;;16.89;57.28;98560.78;4976780;28;20232;-51
2022/08/13 06:19:52;;;;;;;3.77;1.90;;;;;;;16.99;57.49;98559.63;4975123;28;20243;-54
2022/08/13 06:22:21;;;;;;;1.90;1.60;;;;;;;17.10;57.31;98569.63;4973911;28;20764;-52
2022/08/13 06:24:48;;;;;;;3.53;1.97;;;;;;;17.23;57.05;98560.97;4974751;28;20229;-53
2022/08/13 06:27:14;;;;;;;4.40;1.90;;;;;;;17.31;56.67;98567.91;4974974;28;20236;-54
2022/08/13 06:29:43;;;;;;;7.37;2.37;;;;;;;17.35;57.09;98569.16;4976476;28;20233;-54
2022/08/13 06:32:11;;;;;;;8.67;2.50;;;;;;;17.36;56.84;98568.97;4975494;28;20246;-51
2022/08/13 06:34:41;;;;;;;53.17;4.53;;;;;;;17.39;56.89;98565.09;4973179;28;20241;-50
2022/08/13 06:37:08;;;;;;;9.60;2.43;;;;;;;17.56;55.63;98568.22;4977739;28;20232;-52
2022/08/13 06:39:37;;;;;;;18.83;3.10;;;;;;;17.61;56.20;98557.88;4981678;28;20247;-52
2022/08/13 06:42:06;;;;;;;7.13;2.37;;;;;;;17.83;55.64;98563.00;4978202;28;20284;-52
2022/08/13 06:44:35;;;;;;;7.07;2.23;;;;;;;18.00;55.11;98564.31;4971971;28;20229;-51
2022/08/13 06:47:04;;;;;;;3.20;1.80;;;;;;;18.19;55.06;98569.81;4975021;28;20225;-54
2022/08/13 06:49:32;;;;;;;7.77;1.97;;;;;;;18.38;54.67;98570.84;4976562;28;20260;-54
2022/08/13 06:52:00;;;;;;;3.83;1.83;;;;;;;18.54;54.35;98563.50;4974896;28;20318;-52
2022/08/13 06:54:27;;;;;;;2.27;1.80;;;;;;;18.72;53.85;98576.94;4973485;28;20261;-54
2022/08/13 06:56:55;;;;;;;3.50;1.70;;;;;;;18.92;52.39;98576.09;4971939;28;20227;-54
2022/08/13 06:59:24;;;;;;;2.90;1.87;;;;;;;19.12;52.24;98583.19;4975706;28;20239;-50
2022/08/13 07:02:01;;;;;;;2.00;1.80;;;;;;;19.27;52.12;98572.38;4975584;28;20231;-50
2022/08/13 07:04:28;;;;;;;2.43;1.90;;;;;;;19.44;52.21;98570.06;4974336;28;20219;-50
2022/08/13 07:06:56;;;;;;;4.83;1.70;;;;;;;19.59;51.88;98575.09;4980144;28;20242;-53
2022/08/13 07:09:24;;;;;;;2.83;1.97;;;;;;;19.69;50.50;98572.78;4978984;28;20684;-54
2022/08/13 07:11:51;;;;;;;4.43;1.90;;;;;;;19.88;50.33;98570.25;4975124;28;20245;-51
2022/08/13 07:14:18;;;;;;;5.73;1.93;;;;;;;20.05;50.31;98568.75;4958517;28;20747;-50
2022/08/13 07:16:46;;;;;;;3.47;1.87;;;;;;;20.21;49.82;98569.25;4976122;28;20235;-51
2022/08/13 07:19:13;;;;;;;2.47;1.63;;;;;;;20.35;49.29;98569.94;4972037;28;20215;-53
2022/08/13 07:21:42;;;;;;;6.37;2.00;;;;;;;20.50;48.52;98574.94;4975401;28;20238;-54
2022/08/13 07:24:09;;;;;;;2.70;2.10;;;;;;;20.68;48.44;98578.66;4974372;28;20251;-54
2022/08/13 07:26:38;;;;;;;3.07;1.93;;;;;;;20.83;49.20;98573.03;4966023;28;20709;-51
2022/08/13 07:29:08;;;;;;;2.00;1.87;;;;;;;20.93;48.53;98581.31;4964132;28;20227;-52
2022/08/13 07:31:39;;;;;;;4.67;2.00;;;;;;;21.05;47.52;98574.25;4966606;28;20246;-51
2022/08/13 07:34:06;;;;;;;2.57;2.10;;;;;;;21.32;45.81;98578.44;4976300;28;20290;-52
2022/08/13 07:36:37;;;;;;;2.10;1.70;;;;;;;21.72;43.84;98571.84;4968202;28;20241;-50
2022/08/13 07:39:08;;;;;;;2.37;1.67;;;;;;;22.07;42.73;98579.13;4972174;28;20232;-54
2022/08/13 07:41:41;;;;;;;3.13;1.70;;;;;;;22.30;42.36;98572.22;4958260;28;20598;-52
2022/08/13 07:44:12;;;;;;;3.70;1.60;;;;;;;22.45;42.06;98580.59;4974633;28;20262;-54
2022/08/13 07:46:42;;;;;;;4.00;1.57;;;;;;;22.57;41.87;98583.28;4974292;28;20667;-53
2022/08/13 07:49:10;;;;;;;3.30;1.80;;;;;;;22.70;41.73;98584.91;4967705;28;20405;-54
2022/08/13 07:51:56;;;;;;;2.50;1.53;;;;;;;22.81;41.06;98577.94;4962049;28;20237;-54
2022/08/13 07:54:22;;;;;;;1.70;1.60;;;;;;;22.81;41.41;98572.63;4955219;28;20232;-54
2022/08/13 07:56:54;;;;;;;3.13;2.03;;;;;;;22.95;41.19;98568.69;4967253;28;20232;-54
2022/08/13 07:59:22;;;;;;;3.00;1.80;;;;;;;22.97;40.79;98566.59;4960114;28;20231;-55
2022/08/13 08:01:50;;;;;;;3.20;1.77;;;;;;;23.07;40.64;98575.84;4973755;28;20257;-53
2022/08/13 08:04:19;;;;;;;1.73;1.63;;;;;;;23.13;40.56;98574.91;4966152;28;20224;-53
2022/08/13 08:06:47;;;;;;;3.13;1.90;;;;;;;23.16;40.24;98574.44;4960656;28;20217;-53
2022/08/13 08:09:17;;;;;;;4.43;1.80;;;;;;;23.22;40.52;98572.72;4966882;28;20565;-50
2022/08/13 08:14:31;;;;;;;2.77;1.90;;;;;;;23.42;39.69;98570.47;4973877;28;20228;-54
2022/08/13 08:16:59;;;;;;;4.10;1.70;;;;;;;23.44;39.49;98578.22;4974134;28;20743;-51
2022/08/13 08:19:27;;;;;;;3.37;1.70;;;;;;;23.60;39.99;98576.66;4972343;28;20312;-55
2022/08/13 08:21:58;;;;;;;2.63;1.70;;;;;;;23.71;39.23;98583.00;4973298;28;20244;-52
2022/08/13 08:24:30;;;;;;;1.57;1.33;;;;;;;23.78;38.79;98577.53;4971645;28;20337;-52
2022/08/13 08:26:59;;;;;;;2.90;1.60;;;;;;;23.88;38.55;98562.50;4963088;28;20308;-52
2022/08/13 08:29:25;;;;;;;2.43;1.50;;;;;;;24.01;38.51;98568.63;4970947;28;20228;-54
2022/08/13 08:31:54;;;;;;;1.80;1.60;;;;;;;24.09;38.92;98567.44;4972378;28;20245;-55
2022/08/13 08:34:21;;;;;;;3.13;1.73;;;;;;;24.09;39.07;98573.56;4953899;28;20233;-52
2022/08/13 08:36:49;;;;;;;2.07;1.87;;;;;;;24.03;38.68;98571.84;4973083;28;21152;-51
2022/08/13 08:45:18;;;;;;;2.87;1.50;;;;;;;24.31;38.47;98563.00;4961431;28;20256;-52
2022/08/13 08:47:47;;;;;;;4.23;1.70;;;;;;;24.33;38.87;98560.09;4970929;28;20229;-52
2022/08/13 08:50:15;;;;;;;3.87;1.80;;;;;;;24.28;38.21;98550.16;4957211;28;20313;-51
2022/08/13 08:55:36;;;;;;;1.93;1.60;;;;;;;24.45;37.87;98552.81;4967205;28;20231;-53
2022/08/13 08:58:05;;;;;;;4.70;1.57;;;;;;;24.58;37.89;98557.00;4966957;28;20279;-54
2022/08/13 09:00:35;;;;;;;2.53;1.63;;;;;;;24.65;37.96;98551.50;4963125;28;20233;-50
2022/08/13 09:03:05;;;;;;;8.27;1.77;;;;;;;24.67;37.60;98548.56;4957586;28;20241;-52
2022/08/13 09:05:31;;;;;;;1.80;1.47;;;;;;;24.73;37.55;98550.28;4965697;28;20218;-52
2022/08/13 09:08:00;;;;;;;2.50;1.40;;;;;;;24.71;37.87;98545.19;4973571;28;20221;-49
2022/08/13 09:10:27;;;;;;;3.77;1.53;;;;;;;24.81;37.46;98549.06;4973019;28;20314;-51
2022/08/13 09:12:54;;;;;;;3.10;1.67;;;;;;;24.93;36.68;98559.63;4970853;28;20233;-53
2022/08/13 09:15:23;;;;;;;2.17;1.50;;;;;;;24.96;37.02;98551.91;4971273;28;20233;-49
2022/08/13 09:17:50;;;;;;;1.60;1.50;;;;;;;25.03;36.67;98546.41;4973684;28;20236;-53
2022/08/13 09:20:24;;;;;;;2.73;1.77;;;;;;;24.98;36.91;98549.03;4970586;28;20239;-50
2022/08/13 09:23:03;;;;;;;7.03;1.40;;;;;;;25.04;36.56;98542.69;4975260;28;20237;-49
2022/08/13 09:25:31;;;;;;;1.77;1.67;;;;;;;25.13;37.03;98537.72;4975723;28;20330;-50
2022/08/13 09:27:58;;;;;;;1.60;1.50;;;;;;;25.18;37.10;98543.94;4977472;28;20219;-50
2022/08/13 09:30:25;;;;;;;2.23;1.90;;;;;;;25.10;36.39;98536.34;4976454;28;20242;-51
2022/08/13 09:32:56;;;;;;;5.60;1.47;;;;;;;25.22;37.24;98538.91;4978553;28;20229;-49
2022/08/13 09:35:26;;;;;;;4.50;1.80;;;;;;;25.12;36.63;98541.44;4975395;28;20316;-50
2022/08/13 09:37:56;;;;;;;3.33;1.60;;;;;;;25.28;36.50;98535.22;4974887;28;20229;-49
2022/08/13 09:40:26;;;;;;;3.63;1.60;;;;;;;25.46;34.98;98530.66;4971065;28;20323;-50
2022/08/13 09:42:57;;;;;;;1.83;1.40;;;;;;;25.55;35.02;98520.28;4972460;28;20294;-52
2022/08/13 09:45:25;;;;;;;1.37;1.27;;;;;;;25.65;31.99;98515.06;4971050;28;20421;-51
2022/08/13 09:48:10;;;;;;;3.00;1.50;;;;;;;26.07;30.75;98521.56;4972558;28;20371;-49
2022/08/13 09:50:39;;;;;;;1.23;1.13;;;;;;;26.15;29.77;98531.81;4971280;28;20237;-50
2022/08/13 09:53:06;;;;;;;2.50;1.13;;;;;;;26.34;28.40;98529.56;4971783;28;20259;-52
2022/08/13 09:55:37;;;;;;;4.27;1.20;;;;;;;26.45;28.51;98532.31;4970592;28;20237;-52
2022/08/13 09:58:04;;;;;;;3.20;1.33;;;;;;;26.50;27.60;98527.78;4972456;28;20236;-50
2022/08/13 10:00:33;;;;;;;5.40;1.30;;;;;;;26.60;27.40;98531.59;4971490;28;20235;-51
2022/08/13 10:03:04;;;;;;;2.63;1.30;;;;;;;26.66;27.37;98525.22;4972870;28;20240;-50
2022/08/13 10:05:34;;;;;;;3.20;1.40;;;;;;;26.73;27.28;98530.31;4972111;28;20221;-50
2022/08/13 10:08:03;;;;;;;2.47;1.40;;;;;;;26.64;27.21;98517.44;4972863;28;20304;-50
2022/08/13 10:10:30;;;;;;;1.58;1.38;;;;;;;26.85;27.21;98514.88;4969477;28;20578;-50
2022/08/13 10:12:59;;;;;;;3.20;1.07;;;;;;;26.96;27.65;98515.75;4972652;28;20238;-50
2022/08/13 10:15:26;;;;;;;2.20;1.10;;;;;;;27.09;28.27;98520.59;4971377;28;20661;-49
2022/08/13 10:17:55;;;;;;;2.85;1.40;;;;;;;27.23;26.37;98525.47;4971488;28;20676;-50
2022/08/13 10:20:24;;;;;;;3.25;1.30;;;;;;;27.37;26.56;98521.22;4969166;28;20243;-53
2022/08/13 10:22:53;;;;;;;1.73;1.27;;;;;;;27.34;27.46;98520.97;4971125;28;20254;-50
2022/08/13 10:25:21;;;;;;;2.03;1.20;;;;;;;27.44;26.79;98499.56;4972274;28;20231;-51
2022/08/13 10:27:48;;;;;;;3.45;1.55;;;;;;;27.43;26.34;98505.97;4972416;28;20240;-53
2022/08/13 10:30:17;;;;;;;1.65;1.50;;;;;;;27.45;25.93;98511.88;4971801;28;20233;-52
2022/08/13 10:32:43;;;;;;;1.95;1.10;;;;;;;27.53;25.83;98514.09;4972267;28;20235;-49
2022/08/13 10:35:10;;;;;;;2.08;1.33;;;;;;;27.67;26.68;98511.69;4972355;28;20601;-50
2022/08/13 10:37:44;;;;;;;2.47;1.33;;;;;;;27.65;25.47;98513.00;4971678;28;20730;-51
2022/08/13 10:40:14;;;;;;;2.92;1.50;;;;;;;27.58;24.91;98499.03;4971566;28;20240;-50
2022/08/13 10:42:44;;;;;;;4.45;1.17;;;;;;;27.52;24.88;98507.09;4971307;28;20255;-51
2022/08/13 10:45:30;;;;;;;1.20;0.90;;;;;;;27.70;25.43;98499.59;4971642;28;20902;-50
2022/08/13 10:47:57;;;;;;;1.88;1.20;;;;;;;27.90;26.58;98496.13;4972385;28;20317;-49
2022/08/13 10:50:29;;;;;;;2.20;1.63;;;;;;;27.72;25.36;98494.78;4971065;28;20250;-53
2022/08/13 10:52:56;;;;;;;3.17;1.45;;;;;;;27.60;26.14;98491.53;4971831;28;20241;-50
2022/08/13 10:55:24;;;;;;;2.30;1.25;;;;;;;27.77;25.55;98494.00;4970736;28;20245;-51
2022/08/13 10:57:52;;;;;;;1.55;1.30;;;;;;;27.89;25.27;98488.34;4971889;28;20332;-52
2022/08/13 11:00:20;;;;;;;4.43;1.58;;;;;;;27.98;25.45;98497.47;4968105;28;20236;-50
2022/08/13 11:02:50;;;;;;;2.95;1.20;;;;;;;28.16;24.61;98498.03;4971073;28;20275;-51
2022/08/13 11:05:20;;;;;;;1.88;1.23;;;;;;;28.14;23.78;98506.31;4971005;28;20239;-52
2022/08/13 11:07:47;;;;;;;1.83;1.20;;;;;;;27.97;24.16;98512.78;4969536;28;20231;-51
2022/08/13 11:10:14;;;;;;;1.27;1.00;;;;;;;27.85;23.76;98499.59;4962595;28;20238;-50
2022/08/13 11:12:50;;;;;;;2.85;1.30;;;;;;;28.04;23.36;98506.34;4969910;28;21066;-50
2022/08/13 11:15:21;;;;;;;3.95;1.20;;;;;;;27.93;23.16;98505.50;4959712;28;20234;-50
2022/08/13 11:17:50;;;;;;;1.23;0.90;;;;;;;27.77;23.25;98500.13;4969329;28;20235;-51
2022/08/13 11:20:19;;;;;;;1.58;1.33;;;;;;;27.80;22.73;98502.28;4969519;28;20256;-50
2022/08/13 11:22:48;;;;;;;1.63;1.30;;;;;;;27.78;23.13;98493.72;4971512;28;20257;-49
2022/08/13 11:25:15;;;;;;;2.60;1.27;;;;;;;27.92;23.68;98491.31;4965403;28;20293;-50
2022/08/13 11:27:42;;;;;;;1.88;1.50;;;;;;;28.08;23.43;98500.16;4960100;28;20606;-52
2022/08/13 11:30:10;;;;;;;3.33;1.60;;;;;;;28.14;24.31;98493.72;4968196;28;20232;-50
2022/08/13 11:32:38;;;;;;;1.98;1.40;;;;;;;28.17;24.00;98496.94;4971052;28;20294;-51
2022/08/13 11:35:06;;;;;;;2.77;1.63;;;;;;;28.26;22.96;98492.66;4970547;28;20230;-50
2022/08/13 11:37:33;;;;;;;2.83;1.45;;;;;;;28.23;23.42;98487.81;4969239;28;20249;-50
2022/08/13 11:40:00;;;;;;;2.20;1.27;;;;;;;28.35;23.28;98477.59;4971502;28;20241;-53
2022/08/13 11:42:27;;;;;;;1.85;1.50;;;;;;;28.65;22.81;98459.78;4968999;28;20242;-52
2022/08/13 11:44:53;;;;;;;1.95;1.30;;;;;;;28.79;22.14;98491.44;4969717;28;20247;-50
2022/08/13 11:47:20;;;;;;;1.73;1.15;;;;;;;28.37;22.06;98482.69;4969930;28;20246;-53
2022/08/13 11:49:48;;;;;;;1.80;1.50;;;;;;;28.36;22.64;98484.59;4970771;28;20701;-50
2022/08/13 11:52:14;;;;;;;2.35;1.50;;;;;;;28.60;22.28;98492.03;4969088;28;20724;-50
2022/08/13 11:54:41;;;;;;;2.00;1.40;;;;;;;28.47;22.27;98479.19;4973381;28;20293;-53
2022/08/13 11:57:08;;;;;;;1.38;1.20;;;;;;;28.65;22.49;98483.94;4969799;28;20314;-50
2022/08/13 11:59:35;;;;;;;4.32;1.50;;;;;;;28.83;22.03;98474.53;4970267;28;20239;-50
2022/08/13 12:02:02;;;;;;;6.28;1.73;;;;;;;28.91;21.80;98483.09;4970387;28;20247;-49
2022/08/13 12:04:29;;;;;;;2.25;1.52;;;;;;;28.69;22.10;98487.69;4970241;28;20251;-52
2022/08/13 12:06:57;;;;;;;2.15;1.67;;;;;;;29.01;21.78;98481.16;4971039;28;20243;-50
2022/08/13 12:09:24;;;;;;;3.53;1.52;;;;;;;29.05;22.23;98472.53;4969207;28;20244;-50
2022/08/13 12:11:51;;;;;;;2.38;1.38;;;;;;;29.09;21.79;98485.16;4970183;28;20259;-49